createdAt,value
2023-04-20T00:00:33.184Z,75.09
2023-04-20T00:03:52.993Z,75.70
2023-04-20T00:06:58.892Z,75.47
2023-04-20T00:10:04.657Z,75.26
2023-04-20T00:13:08.468Z,74.97
2023-04-20T00:16:11.865Z,75.27
2023-04-20T00:19:16.031Z,74.91
2023-04-20T00:22:19.770Z,74.93
2023-04-20T00:25:25.134Z,75.23
2023-04-20T00:28:28.581Z,75.23
2023-04-20T00:31:33.285Z,75.43
2023-04-20T00:34:37.145Z,75.33
2023-04-20T00:37:41.391Z,75.64
2023-04-20T00:40:48.974Z,75.58
2023-04-20T00:43:53.620Z,75.53
2023-04-20T00:46:57.402Z,75.10
2023-04-20T00:50:03.241Z,75.00
2023-04-20T00:53:08.784Z,75.64
2023-04-20T00:56:16.531Z,75.61
2023-04-20T00:59:20.299Z,75.44
2023-04-20T01:02:24.426Z,75.64
2023-04-20T01:05:28.409Z,75.78
2023-04-20T01:08:32.606Z,75.54
2023-04-20T01:11:38.241Z,75.86
2023-04-20T01:14:42.012Z,75.28
2023-04-20T01:17:45.679Z,75.62
2023-04-20T01:20:49.713Z,75.88
2023-04-20T01:23:54.675Z,75.39
2023-04-20T01:26:58.716Z,75.90
2023-04-20T01:30:02.132Z,75.28
2023-04-20T01:33:06.693Z,75.81
2023-04-20T01:36:11.752Z,76.04
2023-04-20T01:39:18.650Z,76.23
2023-04-20T01:42:23.956Z,76.37
2023-04-20T01:45:27.762Z,76.05
2023-04-20T01:48:31.288Z,76.25
2023-04-20T01:51:35.634Z,76.12
2023-04-20T01:54:40.450Z,76.36
2023-04-20T01:57:44.752Z,76.28
2023-04-20T02:00:48.210Z,75.90
2023-04-20T02:03:52.257Z,76.36
2023-04-20T02:06:57.770Z,76.34
2023-04-20T02:10:03.254Z,76.13
2023-04-20T02:13:06.769Z,75.96
2023-04-20T02:16:10.831Z,76.07
2023-04-20T02:19:14.318Z,75.68
2023-04-20T02:22:18.242Z,76.01
2023-04-20T02:25:23.165Z,75.73
2023-04-20T02:28:27.184Z,76.50
2023-04-20T02:31:30.963Z,75.98
2023-04-20T02:34:34.974Z,76.51
2023-04-20T02:37:38.370Z,76.61
2023-04-20T02:40:43.665Z,76.35
2023-04-20T02:43:47.178Z,76.05
2023-04-20T02:46:51.023Z,76.70
2023-04-20T02:49:56.262Z,76.44
2023-04-20T02:53:02.145Z,76.54
2023-04-20T02:56:10.136Z,76.42
2023-04-20T02:59:21.342Z,76.40
2023-04-20T03:02:47.991Z,76.55
2023-04-20T03:05:52.003Z,76.72
2023-04-20T03:08:55.522Z,76.51
2023-04-20T03:12:33.211Z,76.66
2023-04-20T03:15:56.974Z,76.62
2023-04-20T03:19:33.058Z,76.15
2023-04-20T03:22:36.734Z,76.93
2023-04-20T03:25:40.754Z,76.66
2023-04-20T03:28:52.836Z,77.17
2023-04-20T03:32:01.111Z,76.23
2023-04-20T03:35:04.775Z,76.97
2023-04-20T03:38:08.760Z,76.98
2023-04-20T03:41:13.395Z,76.95
2023-04-20T03:44:18.806Z,76.66
2023-04-20T03:47:22.253Z,76.56
2023-04-20T03:50:27.187Z,76.98
2023-04-20T03:53:30.699Z,76.60
2023-04-20T03:56:34.892Z,76.73
2023-04-20T03:59:39.772Z,77.06
2023-04-20T04:02:44.986Z,76.54
2023-04-20T04:05:49.344Z,76.99
2023-04-20T04:08:53.318Z,76.67
2023-04-20T04:11:57.426Z,76.69
2023-04-20T04:15:03.404Z,76.84
2023-04-20T04:18:10.880Z,76.66
2023-04-20T04:21:16.375Z,76.98
2023-04-20T04:24:26.832Z,77.13
2023-04-20T04:27:40.777Z,76.62
2023-04-20T04:30:46.212Z,77.33
2023-04-20T04:33:50.146Z,77.18
2023-04-20T04:37:13.113Z,77.25
2023-04-20T04:40:21.673Z,77.32
2023-04-20T04:43:29.505Z,76.72
2023-04-20T04:47:03.338Z,77.21
2023-04-20T04:50:09.327Z,77.20
2023-04-20T04:53:13.232Z,77.23
2023-04-20T04:56:18.470Z,77.02
2023-04-20T04:59:22.196Z,76.90
2023-04-20T05:02:27.175Z,77.47
2023-04-20T05:05:31.403Z,76.99
2023-04-20T05:08:35.329Z,77.09
2023-04-20T05:11:39.091Z,76.30
2023-04-20T05:14:42.660Z,77.02
2023-04-20T05:17:49.718Z,76.80
2023-04-20T05:20:53.679Z,76.21
2023-04-20T05:23:57.480Z,76.53
2023-04-20T05:27:01.422Z,76.90
2023-04-20T05:30:17.016Z,76.70
2023-04-20T05:33:26.189Z,76.66
2023-04-20T05:36:30.945Z,76.08
2023-04-20T05:39:34.752Z,76.69
2023-04-20T05:42:38.408Z,76.36
2023-04-20T05:45:42.209Z,76.19
2023-04-20T05:48:47.842Z,76.47
2023-04-20T05:51:52.113Z,76.44
2023-04-20T05:54:55.914Z,76.55
2023-04-20T05:57:59.356Z,76.71
2023-04-20T06:01:04.325Z,76.17
2023-04-20T06:04:09.597Z,76.67
2023-04-20T06:07:13.753Z,76.25
2023-04-20T06:10:17.379Z,76.35
2023-04-20T06:13:21.448Z,76.27
2023-04-20T06:16:25.060Z,76.01
2023-04-20T06:19:30.319Z,75.03
2023-04-20T06:22:33.889Z,75.52
2023-04-20T06:25:38.096Z,75.34
2023-04-20T06:28:41.645Z,74.89
2023-04-20T06:31:45.500Z,74.95
2023-04-20T06:34:51.076Z,75.03
2023-04-20T06:37:57.670Z,74.33
2023-04-20T06:41:02.630Z,74.45
2023-04-20T06:44:06.661Z,73.51
2023-04-20T06:47:10.137Z,74.25
2023-04-20T06:50:15.281Z,73.73
2023-04-20T06:53:18.898Z,73.61
2023-04-20T06:56:23.061Z,73.74
2023-04-20T06:59:26.516Z,73.38
2023-04-20T07:02:30.335Z,73.27
2023-04-20T07:05:37.618Z,73.40
2023-04-20T07:08:41.572Z,73.35
2023-04-20T07:11:45.010Z,73.01
2023-04-20T07:14:48.730Z,72.99
2023-04-20T07:17:52.274Z,72.73
2023-04-20T07:20:57.389Z,72.10
2023-04-20T07:24:00.971Z,72.94
2023-04-20T07:27:05.705Z,71.92
2023-04-20T07:30:12.126Z,72.09
2023-04-20T07:33:16.022Z,71.58
2023-04-20T07:36:22.421Z,71.94
2023-04-20T07:39:28.632Z,71.71
2023-04-20T07:42:34.609Z,71.79
2023-04-20T07:45:41.201Z,70.98
2023-04-20T07:48:44.769Z,70.56
2023-04-20T07:51:50.007Z,70.95
2023-04-20T07:54:54.533Z,71.19
2023-04-20T07:57:58.650Z,70.40
2023-04-20T08:01:02.188Z,70.05
2023-04-20T08:04:06.898Z,70.30
2023-04-20T08:07:12.273Z,69.78
2023-04-20T08:10:16.054Z,69.29
2023-04-20T08:13:19.557Z,69.34
2023-04-20T08:16:24.066Z,69.51
2023-04-20T08:19:27.770Z,68.44
2023-04-20T08:22:33.632Z,68.33
2023-04-20T08:25:40.167Z,68.31
2023-04-20T08:28:45.148Z,67.70
2023-04-20T08:31:50.744Z,67.48
2023-04-20T08:34:56.396Z,67.24
2023-04-20T08:38:01.353Z,66.91
2023-04-20T08:41:05.153Z,67.07
2023-04-20T08:44:09.560Z,66.47
2023-04-20T08:47:14.043Z,67.07
2023-04-20T08:50:18.061Z,66.90
2023-04-20T08:53:23.991Z,66.67
2023-04-20T08:56:36.116Z,66.86
2023-04-20T08:59:40.008Z,66.76
2023-04-20T09:02:55.107Z,66.58
2023-04-20T09:05:59.020Z,67.24
2023-04-20T09:09:12.254Z,66.40
2023-04-20T09:12:15.933Z,66.93
2023-04-20T09:15:30.731Z,66.80
2023-04-20T09:18:34.444Z,67.09
2023-04-20T09:21:38.009Z,67.51
2023-04-20T09:24:43.390Z,67.08
2023-04-20T09:27:58.290Z,67.31
2023-04-20T09:31:02.045Z,67.61
2023-04-20T09:34:05.790Z,67.17
2023-04-20T09:37:11.697Z,66.99
2023-04-20T09:40:17.656Z,66.53
2023-04-20T09:43:25.552Z,66.83
2023-04-20T09:46:32.731Z,66.96
2023-04-20T09:49:36.864Z,66.39
2023-04-20T09:52:40.939Z,66.64
2023-04-20T09:55:49.017Z,65.47
2023-04-20T09:58:53.464Z,65.83
2023-04-20T10:01:57.318Z,65.35
2023-04-20T10:05:02.305Z,65.04
2023-04-20T10:08:07.559Z,64.87
2023-04-20T10:11:12.913Z,64.60
2023-04-20T10:14:20.019Z,64.63
2023-04-20T10:17:32.138Z,64.70
2023-04-20T10:20:36.607Z,63.93
2023-04-20T10:23:50.324Z,63.31
2023-04-20T10:26:55.569Z,62.90
2023-04-20T10:30:10.203Z,62.24
2023-04-20T10:33:14.697Z,61.94
2023-04-20T10:36:26.013Z,60.93
2023-04-20T10:39:32.832Z,61.01
2023-04-20T10:42:45.834Z,61.38
2023-04-20T10:45:50.678Z,60.87
2023-04-20T10:48:56.501Z,60.49
2023-04-20T10:52:00.429Z,60.36
2023-04-20T10:55:04.686Z,59.67
2023-04-20T10:58:09.764Z,59.05
2023-04-20T11:01:13.433Z,57.95
2023-04-20T11:04:19.087Z,57.67
2023-04-20T11:07:22.908Z,58.26
2023-04-20T11:10:40.569Z,56.72
2023-04-20T11:13:45.499Z,55.84
2023-04-20T11:16:54.230Z,57.49
2023-04-20T11:20:10.906Z,57.93
2023-04-20T11:23:14.614Z,57.84
2023-04-20T11:26:18.183Z,56.83
2023-04-20T11:29:35.442Z,56.65
2023-04-20T11:32:39.269Z,57.53
2023-04-20T11:35:44.464Z,57.44
2023-04-20T11:38:47.875Z,57.18
2023-04-20T11:41:52.094Z,57.22
2023-04-20T11:44:57.623Z,56.80
2023-04-20T11:48:01.594Z,56.41
2023-04-20T11:51:05.375Z,55.99
2023-04-20T11:54:09.025Z,54.75
2023-04-20T11:57:13.157Z,53.89
2023-04-20T12:00:19.585Z,53.85
2023-04-20T12:03:25.160Z,53.43
2023-04-20T12:06:29.443Z,53.49
2023-04-20T12:09:36.130Z,52.52
2023-04-20T12:12:42.270Z,51.38
2023-04-20T12:15:47.227Z,50.86
2023-04-20T12:18:51.048Z,51.15
2023-04-20T12:21:54.573Z,51.09
2023-04-20T12:24:58.298Z,50.83
2023-04-20T12:28:06.687Z,50.95
2023-04-20T12:31:12.034Z,50.39
2023-04-20T12:34:15.668Z,49.91
2023-04-20T12:37:20.948Z,49.59
2023-04-20T12:40:24.741Z,48.67
2023-04-20T12:43:28.600Z,47.55
2023-04-20T12:46:33.658Z,45.26
2023-04-20T12:49:37.301Z,45.27
2023-04-20T12:52:41.302Z,45.76
2023-04-20T12:55:45.196Z,45.45
2023-04-20T12:58:49.113Z,46.86
2023-04-20T13:01:54.493Z,47.35
2023-04-20T13:04:58.238Z,48.07
2023-04-20T13:08:02.081Z,49.34
2023-04-20T13:11:06.377Z,49.91
2023-04-20T13:14:10.150Z,47.35
2023-04-20T13:17:15.431Z,40.99
2023-04-20T13:20:19.364Z,35.35
2023-04-20T13:23:23.140Z,33.17
2023-04-20T13:26:27.338Z,31.76
2023-04-20T13:29:30.743Z,33.16
2023-04-20T13:32:38.307Z,32.35
2023-04-20T13:35:43.062Z,30.95
2023-04-20T13:38:47.265Z,32.94
2023-04-20T13:41:50.680Z,35.18
2023-04-20T13:44:54.373Z,38.01
2023-04-20T13:47:59.186Z,40.20
2023-04-20T13:51:03.158Z,42.29
2023-04-20T13:54:06.877Z,44.32
2023-04-20T13:57:10.797Z,45.62
2023-04-20T14:00:15.378Z,46.74
2023-04-20T14:03:21.277Z,47.74
2023-04-20T14:06:24.968Z,48.26
2023-04-20T14:09:29.537Z,47.45
2023-04-20T14:12:34.160Z,47.11
2023-04-20T14:15:37.928Z,45.80
2023-04-20T14:18:42.818Z,40.97
2023-04-20T14:21:47.431Z,40.87
2023-04-20T14:24:50.821Z,40.93
2023-04-20T14:27:54.753Z,41.72
2023-04-20T14:30:58.149Z,42.07
2023-04-20T14:34:03.259Z,40.47
2023-04-20T14:37:06.661Z,36.41
2023-04-20T14:40:11.955Z,32.09
2023-04-20T14:43:15.445Z,30.12
2023-04-20T14:46:20.400Z,29.84
2023-04-20T14:49:25.297Z,31.74
2023-04-20T14:52:29.204Z,34.45
2023-04-20T14:55:32.771Z,36.52
2023-04-20T14:58:37.571Z,37.35
2023-04-20T15:01:51.384Z,37.59
2023-04-20T15:05:06.327Z,38.59
2023-04-20T15:08:12.719Z,39.99
2023-04-20T15:11:16.569Z,40.56
2023-04-20T15:14:20.129Z,41.51
2023-04-20T15:17:24.225Z,42.39
2023-04-20T15:20:29.231Z,43.56
2023-04-20T15:23:33.135Z,44.37
2023-04-20T15:26:36.839Z,44.38
2023-04-20T15:29:40.503Z,44.69
2023-04-20T15:32:43.887Z,45.08
2023-04-20T15:35:50.358Z,44.83
2023-04-20T15:38:55.412Z,45.50
2023-04-20T15:42:00.716Z,45.88
2023-04-20T15:45:04.610Z,42.83
2023-04-20T15:48:09.030Z,39.46
2023-04-20T15:51:15.270Z,36.41
2023-04-20T15:54:23.508Z,34.72
2023-04-20T15:57:27.074Z,32.92
2023-04-20T16:00:31.398Z,32.17
2023-04-20T16:03:34.960Z,32.10
2023-04-20T16:06:41.602Z,34.44
2023-04-20T16:09:44.977Z,36.68
2023-04-20T16:12:48.940Z,39.40
2023-04-20T16:15:52.776Z,41.19
2023-04-20T16:18:56.792Z,42.58
2023-04-20T16:22:01.728Z,43.55
2023-04-20T16:25:06.904Z,44.51
2023-04-20T16:28:10.301Z,45.53
2023-04-20T16:31:14.332Z,45.42
2023-04-20T16:34:18.477Z,45.92
2023-04-20T16:37:24.645Z,46.00
2023-04-20T16:40:28.543Z,46.34
2023-04-20T16:43:32.327Z,44.28
2023-04-20T16:46:35.761Z,43.57
2023-04-20T16:49:39.682Z,43.00
2023-04-20T16:52:44.459Z,42.35
2023-04-20T16:55:48.337Z,42.18
2023-04-20T16:58:51.833Z,41.67
2023-04-20T17:01:55.923Z,42.91
2023-04-20T17:04:59.439Z,43.94
2023-04-20T17:08:05.563Z,45.06
2023-04-20T17:11:09.020Z,46.31
2023-04-20T17:14:12.912Z,47.20
2023-04-20T17:17:16.287Z,47.45
2023-04-20T17:20:20.424Z,48.37
2023-04-20T17:23:26.382Z,49.04
2023-04-20T17:26:30.254Z,49.55
2023-04-20T17:29:36.108Z,49.99
2023-04-20T17:32:40.358Z,50.35
2023-04-20T17:35:45.688Z,50.98
2023-04-20T17:38:51.524Z,51.90
2023-04-20T17:41:55.065Z,51.73
2023-04-20T17:44:58.829Z,52.18
2023-04-20T17:48:02.281Z,52.34
2023-04-20T17:51:06.243Z,53.04
2023-04-20T17:54:11.433Z,53.03
2023-04-20T17:57:15.308Z,53.39
2023-04-20T18:00:20.459Z,53.56
2023-04-20T18:03:24.743Z,54.08
2023-04-20T18:06:30.017Z,54.58
2023-04-20T18:09:35.315Z,54.97
2023-04-20T18:12:38.690Z,55.41
2023-04-20T18:15:42.817Z,55.91
2023-04-20T18:18:46.222Z,56.18
2023-04-20T18:21:49.997Z,56.58
2023-04-20T18:24:54.732Z,56.94
2023-04-20T18:27:58.712Z,56.75
2023-04-20T18:31:02.563Z,57.29
2023-04-20T18:34:07.630Z,57.74
2023-04-20T18:37:14.077Z,57.30
2023-04-20T18:40:19.134Z,57.95
2023-04-20T18:43:22.527Z,57.77
2023-04-20T18:46:26.519Z,58.35
2023-04-20T18:49:30.677Z,57.80
2023-04-20T18:52:34.893Z,58.26
2023-04-20T18:55:39.927Z,58.53
2023-04-20T18:58:44.003Z,58.23
2023-04-20T19:01:47.551Z,58.83
2023-04-20T19:04:51.822Z,58.64
2023-04-20T19:07:55.313Z,59.31
2023-04-20T19:11:00.714Z,59.14
2023-04-20T19:14:04.120Z,59.61
2023-04-20T19:17:09.189Z,59.14
2023-04-20T19:20:13.644Z,59.20
2023-04-20T19:23:18.088Z,59.96
2023-04-20T19:26:24.085Z,60.19
2023-04-20T19:29:28.055Z,59.50
2023-04-20T19:32:31.593Z,59.67
2023-04-20T19:35:35.430Z,59.16
2023-04-20T19:38:38.909Z,59.31
2023-04-20T19:41:44.166Z,59.99
2023-04-20T19:44:47.573Z,59.71
2023-04-20T19:47:51.901Z,59.66
2023-04-20T19:50:57.667Z,59.96
2023-04-20T19:54:03.638Z,59.78
2023-04-20T19:57:09.150Z,59.94
2023-04-20T20:00:13.912Z,59.45
2023-04-20T20:03:18.755Z,59.74
2023-04-20T20:06:23.889Z,60.20
2023-04-20T20:09:27.372Z,59.77
2023-04-20T20:12:32.964Z,59.68
2023-04-20T20:15:37.448Z,59.86
2023-04-20T20:18:41.972Z,59.91
2023-04-20T20:21:45.387Z,60.30
2023-04-20T20:24:51.205Z,59.96
2023-04-20T20:27:56.167Z,60.53
2023-04-20T20:31:00.029Z,59.86
2023-04-20T20:34:03.476Z,60.39
2023-04-20T20:37:07.480Z,60.49
2023-04-20T20:40:13.350Z,60.02
2023-04-20T20:43:19.051Z,60.50
2023-04-20T20:46:23.108Z,59.88
2023-04-20T20:49:26.974Z,59.88
2023-04-20T20:52:30.493Z,59.82
2023-04-20T20:55:34.298Z,60.13
2023-04-20T20:58:39.066Z,60.31
2023-04-20T21:01:42.871Z,60.03
2023-04-20T21:04:46.537Z,60.13
2023-04-20T21:07:50.320Z,60.46
2023-04-20T21:10:53.701Z,60.17
2023-04-20T21:14:01.711Z,59.79
2023-04-20T21:17:05.757Z,60.61
2023-04-20T21:20:11.522Z,60.41
2023-04-20T21:23:14.912Z,60.43
2023-04-20T21:26:18.790Z,60.64
2023-04-20T21:29:23.635Z,60.00
2023-04-20T21:32:27.427Z,60.89
2023-04-20T21:35:31.012Z,60.66
2023-04-20T21:38:34.872Z,59.77
2023-04-20T21:41:38.265Z,59.82
2023-04-20T21:44:43.474Z,60.47
2023-04-20T21:47:46.888Z,59.67
2023-04-20T21:50:50.747Z,59.97
2023-04-20T21:53:54.204Z,60.34
2023-04-20T21:56:58.456Z,59.48
2023-04-20T22:00:03.325Z,59.62
2023-04-20T22:03:18.593Z,60.47
2023-04-20T22:06:22.179Z,59.97
2023-04-20T22:09:26.232Z,60.37
2023-04-20T22:12:39.355Z,60.34
2023-04-20T22:15:47.352Z,61.02
2023-04-20T22:18:51.500Z,60.75
2023-04-20T22:21:55.600Z,61.01
2023-04-20T22:24:59.006Z,60.67
2023-04-20T22:28:02.750Z,61.14
2023-04-20T22:31:07.629Z,60.49
2023-04-20T22:34:11.313Z,60.51
2023-04-20T22:37:14.999Z,60.52
2023-04-20T22:40:18.722Z,59.93
2023-04-20T22:43:22.257Z,60.35
2023-04-20T22:46:27.503Z,60.10
2023-04-20T22:49:30.943Z,59.78
2023-04-20T22:52:35.013Z,59.27
2023-04-20T22:55:38.418Z,59.10
2023-04-20T22:58:42.175Z,58.95
2023-04-20T23:01:47.061Z,58.95
2023-04-20T23:04:51.537Z,58.71
2023-04-20T23:07:55.085Z,59.24
2023-04-20T23:10:58.951Z,59.05
2023-04-20T23:14:02.510Z,59.78
2023-04-20T23:17:08.344Z,60.00
2023-04-20T23:20:13.993Z,59.61
2023-04-20T23:23:18.100Z,59.75
2023-04-20T23:26:21.650Z,59.52
2023-04-20T23:29:25.590Z,59.83
2023-04-20T23:32:30.687Z,59.67
2023-04-20T23:35:34.754Z,59.92
2023-04-20T23:38:38.800Z,59.77
2023-04-20T23:41:42.518Z,59.98
2023-04-20T23:44:46.098Z,59.95
2023-04-20T23:47:51.331Z,59.81
2023-04-20T23:50:55.708Z,59.99
2023-04-20T23:53:59.628Z,59.93
2023-04-20T23:57:03.256Z,59.59
